createdAt,value
2023-04-17T00:01:47.809Z,3.20
2023-04-17T00:04:15.957Z,3.10
2023-04-17T00:06:44.652Z,3.20
2023-04-17T00:09:16.237Z,3.00
2023-04-17T00:11:44.223Z,3.10
2023-04-17T00:14:12.227Z,3.10
2023-04-17T00:16:41.665Z,3.00
2023-04-17T00:19:09.757Z,3.00
2023-04-17T00:21:38.707Z,3.03
2023-04-17T00:24:07.082Z,2.80
2023-04-17T00:26:35.086Z,2.87
2023-04-17T00:29:03.149Z,2.63
2023-04-17T00:31:31.173Z,2.83
2023-04-17T00:34:01.658Z,3.13
2023-04-17T00:36:31.697Z,3.07
2023-04-17T00:38:59.723Z,2.50
2023-04-17T00:41:27.749Z,2.80
2023-04-17T00:43:55.668Z,3.00
2023-04-17T00:46:24.013Z,3.07
2023-04-17T00:48:52.146Z,3.10
2023-04-17T00:51:21.633Z,3.27
2023-04-17T00:53:49.924Z,3.10
2023-04-17T00:56:17.916Z,2.80
2023-04-17T00:58:46.515Z,3.27
2023-04-17T01:01:14.542Z,3.30
2023-04-17T01:03:42.795Z,3.13
2023-04-17T01:06:11.595Z,3.30
2023-04-17T01:08:42.855Z,3.20
2023-04-17T01:11:14.279Z,3.20
2023-04-17T01:13:49.040Z,2.90
2023-04-17T01:16:17.290Z,2.97
2023-04-17T01:18:46.523Z,3.10
2023-04-17T01:21:14.839Z,3.20
2023-04-17T01:23:48.947Z,2.90
2023-04-17T01:26:21.567Z,2.70
2023-04-17T01:28:54.241Z,2.90
2023-04-17T01:31:22.435Z,3.27
2023-04-17T01:33:51.915Z,3.27
2023-04-17T01:36:20.272Z,3.00
2023-04-17T01:38:48.284Z,3.20
2023-04-17T01:41:16.292Z,2.80
2023-04-17T01:43:46.945Z,2.90
2023-04-17T01:46:15.443Z,3.00
2023-04-17T01:48:43.481Z,3.17
2023-04-17T01:51:11.458Z,3.03
2023-04-17T01:53:40.598Z,3.20
2023-04-17T01:56:08.839Z,3.10
2023-04-17T01:58:37.158Z,3.20
2023-04-17T02:01:07.140Z,3.00
2023-04-17T02:03:35.320Z,2.80
2023-04-17T02:06:03.465Z,3.00
2023-04-17T02:08:31.469Z,2.90
2023-04-17T02:11:00.039Z,3.30
2023-04-17T02:13:28.493Z,3.13
2023-04-17T02:15:57.045Z,2.87
2023-04-17T02:18:26.489Z,3.10
2023-04-17T02:20:54.477Z,2.80
2023-04-17T02:23:23.004Z,3.80
2023-04-17T02:25:51.019Z,4.17
2023-04-17T02:28:18.990Z,4.47
2023-04-17T02:30:46.960Z,5.10
2023-04-17T02:33:14.998Z,5.07
2023-04-17T02:35:44.754Z,5.37
2023-04-17T02:38:12.736Z,6.37
2023-04-17T02:40:40.780Z,7.50
2023-04-17T02:43:08.782Z,8.03
2023-04-17T02:45:36.955Z,7.73
2023-04-17T02:48:06.332Z,9.90
2023-04-17T02:50:34.366Z,10.17
2023-04-17T02:53:03.681Z,9.37
2023-04-17T02:55:31.715Z,11.17
2023-04-17T02:57:59.732Z,13.53
2023-04-17T03:00:28.237Z,14.60
2023-04-17T03:02:56.759Z,12.90
2023-04-17T03:05:25.860Z,12.37
2023-04-17T03:07:53.824Z,12.73
2023-04-17T03:10:23.182Z,14.17
2023-04-17T03:12:51.767Z,20.53
2023-04-17T03:15:19.813Z,16.80
2023-04-17T03:17:47.885Z,17.30
2023-04-17T03:20:17.869Z,16.47
2023-04-17T03:22:45.906Z,19.23
2023-04-17T03:25:14.277Z,14.30
2023-04-17T03:27:43.616Z,15.00
2023-04-17T03:30:12.160Z,14.80
2023-04-17T03:32:40.131Z,15.53
2023-04-17T03:35:08.605Z,13.93
2023-04-17T03:37:37.218Z,13.70
2023-04-17T03:40:06.771Z,25.63
2023-04-17T03:42:34.784Z,14.20
2023-04-17T03:45:04.678Z,14.40
2023-04-17T03:47:32.834Z,20.10
2023-04-17T03:50:01.144Z,16.33
2023-04-17T03:52:29.106Z,16.73
2023-04-17T03:54:58.084Z,15.80
2023-04-17T03:57:26.334Z,16.90
2023-04-17T03:59:54.356Z,15.43
2023-04-17T04:02:24.428Z,21.03
2023-04-17T04:04:53.588Z,16.00
2023-04-17T04:07:21.938Z,16.87
2023-04-17T04:09:49.926Z,20.47
2023-04-17T04:12:17.910Z,16.83
2023-04-17T04:14:46.324Z,18.80
2023-04-17T04:17:14.278Z,18.57
2023-04-17T04:19:43.900Z,19.93
2023-04-17T04:22:13.566Z,17.43
2023-04-17T04:24:42.653Z,18.63
2023-04-17T04:27:13.171Z,24.70
2023-04-17T04:29:45.627Z,20.10
2023-04-17T04:32:13.677Z,17.57
2023-04-17T04:34:44.591Z,25.23
2023-04-17T04:37:16.099Z,21.33
2023-04-17T04:39:44.364Z,18.37
2023-04-17T04:42:12.334Z,18.77
2023-04-17T04:44:40.323Z,17.50
2023-04-17T04:47:08.484Z,18.20
2023-04-17T04:49:36.818Z,19.73
2023-04-17T04:52:06.649Z,17.57
2023-04-17T04:54:34.639Z,17.43
2023-04-17T04:57:02.593Z,16.83
2023-04-17T04:59:30.597Z,17.87
2023-04-17T05:01:59.128Z,17.73
2023-04-17T05:04:28.137Z,17.53
2023-04-17T05:06:57.726Z,17.93
2023-04-17T05:09:27.141Z,18.63
2023-04-17T05:11:55.129Z,19.40
2023-04-17T05:14:23.857Z,17.27
2023-04-17T05:16:51.991Z,18.80
2023-04-17T05:19:20.349Z,17.90
2023-04-17T05:21:48.446Z,18.63
2023-04-17T05:24:17.028Z,18.17
2023-04-17T05:26:47.652Z,17.20
2023-04-17T05:29:15.785Z,17.73
2023-04-17T05:31:44.147Z,16.87
2023-04-17T05:34:12.169Z,17.40
2023-04-17T05:36:40.258Z,17.00
2023-04-17T05:39:08.801Z,16.60
2023-04-17T05:41:36.991Z,16.73
2023-04-17T05:44:07.294Z,17.40
2023-04-17T05:46:35.358Z,18.03
2023-04-17T05:49:03.684Z,18.37
2023-04-17T05:51:32.362Z,16.83
2023-04-17T05:54:00.424Z,16.47
2023-04-17T05:56:28.768Z,17.00
2023-04-17T05:58:57.016Z,17.43
2023-04-17T06:01:27.135Z,17.50
2023-04-17T06:03:56.560Z,18.33
2023-04-17T06:06:25.217Z,17.70
2023-04-17T06:08:54.654Z,17.80
2023-04-17T06:11:23.036Z,16.43
2023-04-17T06:13:52.091Z,19.10
2023-04-17T06:16:21.128Z,18.70
2023-04-17T06:18:50.971Z,19.70
2023-04-17T06:21:19.137Z,18.73
2023-04-17T06:23:47.862Z,18.50
2023-04-17T06:26:16.630Z,19.00
2023-04-17T06:28:45.376Z,19.63
2023-04-17T06:31:14.091Z,20.53
2023-04-17T06:33:42.509Z,19.77
2023-04-17T06:36:12.646Z,20.90
2023-04-17T06:38:41.062Z,20.83
2023-04-17T06:41:10.236Z,22.93
2023-04-17T06:43:38.822Z,23.57
2023-04-17T06:46:07.718Z,24.27
2023-04-17T06:48:36.046Z,25.63
2023-04-17T06:51:04.329Z,23.87
2023-04-17T06:53:34.495Z,22.83
2023-04-17T06:56:02.999Z,22.73
2023-04-17T06:58:31.436Z,22.57
2023-04-17T07:01:00.111Z,21.97
2023-04-17T07:03:28.900Z,21.43
2023-04-17T07:05:57.642Z,22.30
2023-04-17T07:08:26.334Z,21.70
2023-04-17T07:10:56.760Z,23.07
2023-04-17T07:13:25.241Z,23.20
2023-04-17T07:15:56.825Z,23.77
2023-04-17T07:18:27.445Z,23.67
2023-04-17T07:20:57.546Z,22.80
2023-04-17T07:23:28.662Z,22.23
2023-04-17T07:25:58.968Z,22.13
2023-04-17T07:28:27.434Z,21.83
2023-04-17T07:30:58.277Z,22.03
2023-04-17T07:33:26.933Z,19.87
2023-04-17T07:35:55.453Z,17.80
2023-04-17T07:38:23.856Z,17.40
2023-04-17T07:40:52.940Z,15.17
2023-04-17T07:43:22.649Z,14.70
2023-04-17T07:45:51.227Z,15.47
2023-04-17T07:48:19.767Z,14.70
2023-04-17T07:50:48.229Z,13.70
2023-04-17T07:53:17.250Z,15.83
2023-04-17T07:55:45.910Z,15.40
2023-04-17T07:58:14.472Z,16.00
2023-04-17T08:00:44.435Z,15.53
2023-04-17T08:03:14.403Z,14.83
2023-04-17T08:05:44.462Z,14.90
2023-04-17T08:08:13.385Z,15.20
2023-04-17T08:10:42.031Z,14.03
2023-04-17T08:13:10.248Z,14.50
2023-04-17T08:15:40.812Z,14.27
2023-04-17T08:18:12.052Z,15.17
2023-04-17T08:20:40.515Z,15.40
2023-04-17T08:23:08.898Z,14.60
2023-04-17T08:25:37.211Z,14.07
2023-04-17T08:28:06.051Z,14.60
2023-04-17T08:30:34.963Z,14.57
2023-04-17T08:33:03.452Z,15.10
2023-04-17T08:35:33.586Z,14.80
2023-04-17T08:38:01.955Z,14.47
2023-04-17T08:40:30.136Z,14.60
2023-04-17T08:43:00.504Z,15.40
2023-04-17T08:45:28.922Z,15.27
2023-04-17T08:47:57.092Z,14.97
2023-04-17T08:50:25.955Z,14.83
2023-04-17T08:52:55.695Z,17.00
2023-04-17T08:55:29.388Z,17.10
2023-04-17T08:57:58.774Z,16.70
2023-04-17T09:00:28.778Z,15.97
2023-04-17T09:02:58.922Z,16.50
2023-04-17T09:05:30.649Z,15.00
2023-04-17T09:08:11.761Z,15.60
2023-04-17T09:10:41.598Z,15.00
2023-04-17T09:13:12.314Z,16.70
2023-04-17T09:15:41.262Z,15.20
2023-04-17T09:18:26.546Z,16.03
2023-04-17T09:20:57.650Z,14.63
2023-04-17T09:23:28.475Z,14.57
2023-04-17T09:26:11.592Z,15.93
2023-04-17T09:28:40.577Z,16.83
2023-04-17T09:31:26.480Z,14.70
2023-04-17T09:33:59.580Z,13.93
2023-04-17T09:36:30.987Z,14.13
2023-04-17T09:39:04.528Z,13.93
2023-04-17T09:41:34.600Z,14.43
2023-04-17T09:44:05.654Z,13.97
2023-04-17T09:46:40.354Z,12.50
2023-04-17T09:49:18.864Z,14.07
2023-04-17T09:51:47.849Z,14.73
2023-04-17T09:54:20.100Z,15.20
2023-04-17T09:56:50.186Z,12.90
2023-04-17T09:59:19.006Z,12.90
2023-04-17T10:01:47.428Z,12.67
2023-04-17T10:04:16.247Z,12.67
2023-04-17T10:06:44.867Z,12.37
2023-04-17T10:09:13.365Z,12.53
2023-04-17T10:11:47.242Z,11.40
2023-04-17T10:14:25.556Z,9.97
2023-04-17T10:16:54.751Z,10.57
2023-04-17T10:19:28.060Z,10.37
2023-04-17T10:22:31.015Z,9.63
2023-04-17T10:25:18.803Z,9.40
2023-04-17T10:27:56.368Z,10.00
2023-04-17T10:30:27.107Z,9.80
2023-04-17T10:33:30.552Z,9.20
2023-04-17T10:35:58.785Z,9.90
2023-04-17T10:38:35.004Z,9.43
2023-04-17T10:41:05.540Z,9.70
2023-04-17T10:43:35.547Z,9.10
2023-04-17T10:46:05.906Z,9.10
2023-04-17T10:48:36.638Z,9.50
2023-04-17T10:51:39.042Z,9.10
2023-04-17T10:54:10.358Z,9.40
2023-04-17T10:56:41.343Z,8.90
2023-04-17T10:59:12.612Z,8.70
2023-04-17T11:02:01.700Z,9.30
2023-04-17T11:04:32.037Z,8.85
2023-04-17T11:07:00.988Z,7.73
2023-04-17T11:09:30.659Z,7.70
2023-04-17T11:12:01.866Z,7.53
2023-04-17T11:14:32.362Z,7.47
2023-04-17T11:17:02.384Z,8.07
2023-04-17T11:19:33.486Z,7.63
2023-04-17T11:22:03.323Z,7.80
2023-04-17T11:24:33.381Z,7.73
2023-04-17T11:27:03.817Z,7.60
2023-04-17T11:29:34.240Z,7.50
2023-04-17T11:32:03.702Z,8.30
2023-04-17T11:34:32.454Z,7.87
2023-04-17T11:37:03.425Z,7.67
2023-04-17T11:39:33.634Z,8.20
2023-04-17T11:42:02.494Z,7.10
2023-04-17T11:44:32.116Z,8.00
2023-04-17T11:47:04.133Z,8.33
2023-04-17T11:49:33.876Z,7.10
2023-04-17T11:52:04.331Z,7.13
2023-04-17T11:54:37.134Z,6.00
2023-04-17T11:57:06.963Z,7.57
2023-04-17T11:59:37.373Z,7.60
2023-04-17T12:02:11.701Z,7.37
2023-04-17T12:04:41.478Z,7.10
2023-04-17T12:07:22.092Z,7.20
2023-04-17T12:09:57.813Z,7.03
2023-04-17T12:12:26.734Z,7.43
2023-04-17T12:14:55.604Z,7.50
2023-04-17T12:17:25.650Z,6.50
2023-04-17T12:19:54.036Z,7.03
2023-04-17T12:22:23.462Z,7.50
2023-04-17T12:24:53.726Z,7.07
2023-04-17T12:27:22.292Z,7.17
2023-04-17T12:29:50.255Z,7.30
2023-04-17T12:32:18.404Z,6.53
2023-04-17T12:34:47.990Z,7.37
2023-04-17T12:37:16.194Z,6.97
2023-04-17T12:39:44.553Z,7.63
2023-04-17T12:42:12.901Z,6.50
2023-04-17T12:44:41.107Z,6.47
2023-04-17T12:47:09.311Z,6.70
2023-04-17T12:49:37.458Z,6.60
2023-04-17T12:52:07.309Z,6.17
2023-04-17T12:54:35.952Z,5.67
2023-04-17T12:57:04.795Z,5.87
2023-04-17T12:59:34.109Z,6.80
2023-04-17T13:02:02.556Z,6.40
2023-04-17T13:04:31.350Z,6.17
2023-04-17T13:06:59.857Z,6.87
2023-04-17T13:09:29.511Z,6.73
2023-04-17T13:11:58.158Z,18.60
2023-04-17T13:14:26.521Z,5.80
2023-04-17T13:16:55.023Z,6.00
2023-04-17T13:19:23.701Z,7.00
2023-04-17T13:21:53.159Z,44.17
2023-04-17T13:24:21.409Z,5.70
2023-04-17T13:26:51.441Z,5.47
2023-04-17T13:29:20.782Z,5.03
2023-04-17T13:31:49.749Z,4.93
2023-04-17T13:34:18.394Z,4.60
2023-04-17T13:36:46.796Z,4.60
2023-04-17T13:39:15.415Z,4.60
2023-04-17T13:41:44.216Z,4.60
2023-04-17T13:44:14.822Z,4.00
2023-04-17T13:46:44.208Z,4.57
2023-04-17T13:49:13.091Z,4.23
2023-04-17T13:51:41.987Z,4.87
2023-04-17T13:54:10.992Z,4.40
2023-04-17T13:56:39.079Z,3.70
2023-04-17T13:59:07.369Z,3.97
2023-04-17T14:01:36.983Z,4.03
2023-04-17T14:04:05.672Z,4.20
2023-04-17T14:06:35.533Z,3.97
2023-04-17T14:09:03.838Z,4.53
2023-04-17T14:11:32.104Z,4.10
2023-04-17T14:14:00.454Z,4.47
2023-04-17T14:16:28.807Z,3.70
2023-04-17T14:19:12.744Z,3.30
2023-04-17T14:21:43.211Z,3.40
2023-04-17T14:24:11.711Z,2.30
2023-04-17T14:26:40.209Z,2.60
2023-04-17T14:29:09.520Z,2.50
2023-04-17T14:31:37.732Z,2.50
2023-04-17T14:34:07.563Z,2.33
2023-04-17T14:36:36.376Z,2.47
2023-04-17T14:39:04.880Z,2.60
2023-04-17T14:41:34.835Z,3.40
2023-04-17T14:44:03.175Z,2.57
2023-04-17T14:46:32.056Z,2.80
2023-04-17T14:49:00.612Z,2.67
2023-04-17T14:51:30.639Z,2.88
2023-04-17T14:53:59.268Z,2.80
2023-04-17T14:56:27.457Z,3.10
2023-04-17T14:58:55.745Z,2.80
2023-04-17T15:01:24.587Z,2.53
2023-04-17T15:03:53.045Z,3.90
2023-04-17T15:06:22.629Z,3.67
2023-04-17T15:08:52.427Z,3.20
2023-04-17T15:11:21.091Z,3.10
2023-04-17T15:13:49.283Z,2.70
2023-04-17T15:16:17.459Z,2.90
2023-04-17T15:18:46.405Z,3.47
2023-04-17T15:21:17.603Z,3.17
2023-04-17T15:23:45.994Z,2.80
2023-04-17T15:26:15.717Z,3.23
2023-04-17T15:28:53.233Z,3.07
2023-04-17T15:31:22.467Z,2.83
2023-04-17T15:33:51.055Z,3.33
2023-04-17T15:36:19.874Z,3.40
2023-04-17T15:38:48.154Z,3.50
2023-04-17T15:41:18.257Z,3.47
2023-04-17T15:43:46.705Z,3.33
2023-04-17T15:46:15.166Z,3.80
2023-04-17T15:48:43.653Z,3.67
2023-04-17T15:51:13.345Z,3.43
2023-04-17T15:53:41.973Z,3.17
2023-04-17T15:56:10.571Z,3.10
2023-04-17T15:58:40.474Z,3.43
2023-04-17T16:01:09.163Z,3.60
2023-04-17T16:03:38.010Z,4.07
2023-04-17T16:06:07.107Z,3.90
2023-04-17T16:08:35.230Z,3.70
2023-04-17T16:11:03.444Z,3.73
2023-04-17T16:13:31.688Z,3.63
2023-04-17T16:16:01.375Z,3.47
2023-04-17T16:18:30.279Z,3.33
2023-04-17T16:20:58.341Z,4.13
2023-04-17T16:23:26.415Z,3.53
2023-04-17T16:25:55.262Z,3.80
2023-04-17T16:28:24.463Z,3.77
2023-04-17T16:30:52.912Z,4.30
2023-04-17T16:33:22.636Z,4.10
2023-04-17T16:35:51.012Z,4.40
2023-04-17T16:38:19.391Z,3.93
2023-04-17T16:40:47.531Z,3.77
2023-04-17T16:43:16.176Z,4.00
2023-04-17T16:45:44.426Z,3.90
2023-04-17T16:48:13.219Z,3.30
2023-04-17T16:50:43.104Z,3.13
2023-04-17T16:53:11.225Z,3.03
2023-04-17T16:55:39.790Z,3.07
2023-04-17T16:58:08.107Z,3.20
2023-04-17T17:00:36.235Z,3.30
2023-04-17T17:03:04.390Z,3.43
2023-04-17T17:05:32.492Z,3.40
2023-04-17T17:08:02.226Z,3.30
2023-04-17T17:10:30.259Z,3.97
2023-04-17T17:12:58.412Z,3.77
2023-04-17T17:15:26.548Z,4.40
2023-04-17T17:17:55.268Z,3.90
2023-04-17T17:20:23.742Z,4.50
2023-04-17T17:22:51.753Z,4.90
2023-04-17T17:25:21.202Z,5.23
2023-04-17T17:27:49.476Z,4.70
2023-04-17T17:30:18.864Z,4.83
2023-04-17T17:32:48.672Z,5.43
2023-04-17T17:35:16.863Z,5.20
2023-04-17T17:37:44.978Z,5.00
2023-04-17T17:40:13.480Z,4.90
2023-04-17T17:42:45.077Z,5.23
2023-04-17T17:45:13.875Z,5.03
2023-04-17T17:47:42.121Z,5.33
2023-04-17T17:50:10.704Z,5.20
2023-04-17T17:52:38.727Z,4.97
2023-04-17T17:55:07.494Z,5.07
2023-04-17T17:57:48.288Z,5.47
2023-04-17T18:00:19.259Z,5.13
2023-04-17T18:02:47.596Z,5.83
2023-04-17T18:05:16.007Z,5.23
2023-04-17T18:07:44.426Z,5.87
2023-04-17T18:10:12.474Z,5.60
2023-04-17T18:12:40.490Z,5.67
2023-04-17T18:15:09.888Z,5.57
2023-04-17T18:17:39.347Z,5.57
2023-04-17T18:20:08.750Z,5.33
2023-04-17T18:22:38.329Z,5.83
2023-04-17T18:25:07.207Z,5.30
2023-04-17T18:27:36.893Z,5.60
2023-04-17T18:30:06.588Z,5.47
2023-04-17T18:32:35.268Z,5.13
2023-04-17T18:35:05.271Z,5.37
2023-04-17T18:37:33.267Z,5.73
2023-04-17T18:40:01.441Z,5.50
2023-04-17T18:42:29.533Z,5.73
2023-04-17T18:44:57.728Z,5.07
2023-04-17T18:47:25.899Z,5.80
2023-04-17T18:49:54.196Z,5.00
2023-04-17T18:52:23.800Z,5.33
2023-04-17T18:54:51.899Z,5.50
2023-04-17T18:57:20.465Z,4.60
2023-04-17T18:59:48.457Z,4.80
2023-04-17T19:02:17.068Z,4.40
2023-04-17T19:04:45.064Z,4.77
2023-04-17T19:07:13.078Z,13.37
2023-04-17T19:09:43.257Z,26.13
2023-04-17T19:12:12.062Z,16.23
2023-04-17T19:14:40.343Z,8.67
2023-04-17T19:17:08.378Z,8.03
2023-04-17T19:19:36.428Z,6.77
2023-04-17T19:22:05.224Z,6.60
2023-04-17T19:24:33.252Z,6.77
2023-04-17T19:27:03.060Z,7.33
2023-04-17T19:29:31.094Z,7.27
2023-04-17T19:31:59.154Z,7.23
2023-04-17T19:34:27.655Z,7.40
2023-04-17T19:36:55.865Z,7.13
2023-04-17T19:39:23.882Z,6.60
2023-04-17T19:41:52.059Z,6.53
2023-04-17T19:44:21.627Z,5.90
2023-04-17T19:46:49.892Z,6.53
2023-04-17T19:49:17.968Z,7.00
2023-04-17T19:51:46.037Z,7.10
2023-04-17T19:54:15.382Z,6.50
2023-04-17T19:56:43.612Z,6.97
2023-04-17T19:59:12.870Z,8.40
2023-04-17T20:01:43.811Z,7.50
2023-04-17T20:04:13.106Z,7.80
2023-04-17T20:06:41.642Z,8.50
2023-04-17T20:09:11.401Z,7.70
2023-04-17T20:11:41.741Z,7.60
2023-04-17T20:14:09.787Z,7.97
2023-04-17T20:16:38.032Z,7.20
2023-04-17T20:19:07.614Z,7.50
2023-04-17T20:21:35.792Z,6.90
2023-04-17T20:24:04.796Z,7.27
2023-04-17T20:26:35.258Z,8.77
2023-04-17T20:29:04.813Z,8.07
2023-04-17T20:31:36.216Z,6.80
2023-04-17T20:34:04.671Z,6.70
2023-04-17T20:36:34.014Z,6.30
2023-04-17T20:39:02.047Z,5.60
2023-04-17T20:41:30.098Z,5.23
2023-04-17T20:43:59.150Z,4.47
2023-04-17T20:46:27.612Z,4.00
2023-04-17T20:48:55.910Z,4.20
2023-04-17T20:51:26.424Z,4.30
2023-04-17T20:53:56.359Z,4.53
2023-04-17T20:56:24.614Z,4.20
2023-04-17T20:58:52.958Z,4.20
2023-04-17T21:01:21.351Z,4.30
2023-04-17T21:03:49.468Z,4.40
2023-04-17T21:06:17.779Z,4.40
2023-04-17T21:08:45.801Z,4.43
2023-04-17T21:11:15.802Z,3.97
2023-04-17T21:13:43.873Z,4.47
2023-04-17T21:16:12.538Z,4.10
2023-04-17T21:18:41.036Z,4.67
2023-04-17T21:21:09.105Z,4.30
2023-04-17T21:23:37.489Z,4.47
2023-04-17T21:26:05.683Z,4.17
2023-04-17T21:28:37.422Z,4.50
2023-04-17T21:31:08.515Z,4.77
2023-04-17T21:33:36.575Z,4.30
2023-04-17T21:36:04.946Z,4.00
2023-04-17T21:38:33.045Z,4.47
2023-04-17T21:41:01.268Z,4.20
2023-04-17T21:43:29.404Z,4.53
2023-04-17T21:45:59.025Z,4.50
2023-04-17T21:48:27.547Z,4.50
2023-04-17T21:51:02.353Z,4.60
2023-04-17T21:53:30.553Z,4.70
2023-04-17T21:55:58.551Z,4.77
2023-04-17T21:58:26.558Z,4.63
2023-04-17T22:00:57.016Z,4.50
2023-04-17T22:03:26.547Z,5.00
2023-04-17T22:05:56.639Z,4.60
2023-04-17T22:08:24.680Z,5.10
2023-04-17T22:10:53.250Z,5.13
2023-04-17T22:13:21.622Z,5.00
2023-04-17T22:15:50.231Z,5.17
2023-04-17T22:18:18.334Z,5.33
2023-04-17T22:20:47.847Z,5.60
2023-04-17T22:23:15.844Z,5.20
2023-04-17T22:25:43.976Z,5.07
2023-04-17T22:28:13.256Z,5.27
2023-04-17T22:30:41.267Z,5.80
2023-04-17T22:33:09.359Z,5.47
2023-04-17T22:35:37.460Z,5.80
2023-04-17T22:38:07.316Z,6.93
2023-04-17T22:40:35.351Z,5.97
2023-04-17T22:43:03.371Z,6.17
2023-04-17T22:45:31.394Z,6.40
2023-04-17T22:47:59.419Z,6.70
2023-04-17T22:50:29.691Z,6.37
2023-04-17T22:52:57.953Z,6.57
2023-04-17T22:55:27.349Z,7.17
2023-04-17T22:57:55.328Z,7.20
2023-04-17T23:00:25.326Z,7.43
2023-04-17T23:02:53.843Z,7.53
2023-04-17T23:05:21.923Z,7.90
2023-04-17T23:07:50.050Z,7.20
2023-04-17T23:10:18.128Z,7.80
2023-04-17T23:12:47.516Z,7.27
2023-04-17T23:15:15.772Z,8.17
2023-04-17T23:17:43.878Z,7.87
2023-04-17T23:20:12.614Z,8.40
2023-04-17T23:22:40.680Z,8.40
2023-04-17T23:25:09.733Z,8.27
2023-04-17T23:27:38.198Z,8.67
2023-04-17T23:30:09.525Z,9.30
2023-04-17T23:32:37.609Z,9.83
2023-04-17T23:35:06.371Z,9.50
2023-04-17T23:37:34.415Z,9.80
2023-04-17T23:40:02.863Z,10.13
2023-04-17T23:42:30.886Z,10.50
2023-04-17T23:44:58.860Z,11.07
2023-04-17T23:47:28.280Z,10.33
2023-04-17T23:49:56.340Z,10.10
2023-04-17T23:52:24.614Z,9.97
2023-04-17T23:54:52.676Z,11.43
2023-04-17T23:57:20.685Z,10.67
2023-04-17T23:59:48.812Z,11.43
